Time;durP1;ratioP1;P1;durP2;ratioP2;P2;SDS_P1;SDS_P2;PMS_P1;PMS_P2;Temp;Humidity;BMP_temperature;BMP_pressure;BME280_temperature;BME280_humidity;BME280_pressure;Samples;Min_cycle;Max_cycle;Signal;HPM_P1;HPM_P2
2021/07/26 00:00:46;;;;;;;11.82;10.65;;;19.00;99.90;;;;;;5031413;28;20022;-71
2021/07/26 00:03:12;;;;;;;13.23;10.27;;;18.90;99.90;;;;;;5032315;28;20022;-71
2021/07/26 00:05:37;;;;;;;13.60;11.25;;;19.00;99.90;;;;;;5032217;28;20036;-71
2021/07/26 00:08:03;;;;;;;12.07;11.05;;;18.90;99.90;;;;;;5030818;28;20086;-70
2021/07/26 00:10:29;;;;;;;11.73;10.65;;;18.90;99.90;;;;;;5032254;28;20526;-70
2021/07/26 00:12:54;;;;;;;12.00;10.77;;;18.90;99.90;;;;;;5031459;28;20029;-70
2021/07/26 00:15:20;;;;;;;12.07;10.88;;;18.90;99.90;;;;;;5031223;28;20027;-71
2021/07/26 00:17:45;;;;;;;13.27;10.88;;;18.80;99.90;;;;;;5031890;28;20044;-71
2021/07/26 00:20:11;;;;;;;13.35;12.20;;;18.90;99.90;;;;;;5031429;28;20584;-71
2021/07/26 00:22:40;;;;;;;12.38;11.35;;;18.80;99.90;;;;;;5030914;28;20034;-71
2021/07/26 00:25:07;;;;;;;13.85;12.52;;;18.70;99.90;;;;;;5031615;28;20044;-71
2021/07/26 00:27:33;;;;;;;13.00;11.80;;;18.70;99.90;;;;;;5033988;28;20032;-71
2021/07/26 00:29:59;;;;;;;13.13;11.90;;;18.70;99.90;;;;;;5035189;28;20038;-71
2021/07/26 00:32:24;;;;;;;12.80;11.75;;;18.70;99.90;;;;;;5035828;28;20048;-71
2021/07/26 00:34:50;;;;;;;13.65;12.35;;;18.70;99.90;;;;;;5034761;28;20034;-71
2021/07/26 00:37:15;;;;;;;11.95;10.77;;;18.60;99.90;;;;;;5035670;28;20041;-70
2021/07/26 00:39:41;;;;;;;12.50;11.15;;;18.60;99.90;;;;;;5035656;28;20033;-71
2021/07/26 00:42:06;;;;;;;14.80;11.70;;;18.60;99.90;;;;;;5034301;28;20383;-71
2021/07/26 00:44:34;;;;;;;12.48;11.27;;;18.60;99.90;;;;;;5035703;28;20040;-71
2021/07/26 00:47:00;;;;;;;12.68;10.95;;;18.60;99.90;;;;;;5035081;28;20037;-70
2021/07/26 00:49:27;;;;;;;14.63;10.77;;;18.60;99.90;;;;;;5034900;28;20203;-71
2021/07/26 00:51:55;;;;;;;13.43;11.98;;;18.50;99.90;;;;;;5034976;28;20033;-70
2021/07/26 00:54:24;;;;;;;13.50;11.80;;;18.50;99.90;;;;;;5035210;28;20067;-70
2021/07/26 00:56:52;;;;;;;12.05;10.82;;;18.50;99.90;;;;;;5034260;28;20027;-71
2021/07/26 00:59:17;;;;;;;11.63;10.65;;;18.40;99.90;;;;;;5035238;28;20041;-71
2021/07/26 01:01:44;;;;;;;14.90;12.02;;;18.40;99.90;;;;;;5035429;28;20385;-71
2021/07/26 01:04:09;;;;;;;12.15;11.00;;;18.40;99.90;;;;;;5034349;28;20112;-71
2021/07/26 01:06:35;;;;;;;12.60;11.50;;;18.40;99.90;;;;;;5035200;28;20525;-71
2021/07/26 01:09:04;;;;;;;11.98;10.77;;;18.40;99.90;;;;;;5034863;28;20033;-71
2021/07/26 01:11:30;;;;;;;10.77;9.88;;;18.30;99.90;;;;;;5034211;28;20037;-71
2021/07/26 01:13:56;;;;;;;10.73;9.27;;;18.40;99.90;;;;;;5034836;28;20381;-71
2021/07/26 01:16:23;;;;;;;10.48;9.48;;;18.30;99.90;;;;;;5034603;28;20040;-72
2021/07/26 01:18:49;;;;;;;10.95;9.98;;;18.30;99.90;;;;;;5033863;28;20033;-71
2021/07/26 01:21:17;;;;;;;11.30;9.43;;;18.30;99.90;;;;;;5034558;28;20091;-71
2021/07/26 01:23:45;;;;;;;13.48;9.27;;;18.30;99.90;;;;;;5034292;28;20040;-71
2021/07/26 01:26:13;;;;;;;10.90;9.50;;;18.40;99.90;;;;;;5035035;28;20068;-71
2021/07/26 01:28:41;;;;;;;11.80;10.48;;;18.40;99.90;;;;;;5034577;28;20033;-71
2021/07/26 01:31:07;;;;;;;10.70;9.65;;;18.30;99.90;;;;;;5033500;28;20104;-71
2021/07/26 01:33:34;;;;;;;10.52;9.63;;;18.30;99.90;;;;;;5034533;28;20108;-71
2021/07/26 01:36:00;;;;;;;10.77;9.88;;;18.40;99.90;;;;;;5034105;28;20152;-71
2021/07/26 01:38:26;;;;;;;9.85;8.90;;;18.40;99.90;;;;;;5032540;28;20188;-71
2021/07/26 01:40:57;;;;;;;11.27;9.55;;;18.30;99.90;;;;;;5034189;28;20105;-72
2021/07/26 01:43:31;;;;;;;10.43;9.38;;;18.30;99.90;;;;;;5035342;28;20021;-71
2021/07/26 01:46:16;;;;;;;10.52;9.45;;;18.30;99.90;;;;;;5033646;28;20029;-70
2021/07/26 01:49:13;;;;;;;10.88;9.85;;;18.30;99.90;;;;;;5034410;28;20026;-71
2021/07/26 01:51:42;;;;;;;11.18;9.50;;;18.30;99.90;;;;;;5034652;28;20072;-71
2021/07/26 01:54:08;;;;;;;11.50;10.27;;;18.30;99.90;;;;;;5033116;28;20029;-70
2021/07/26 01:56:33;;;;;;;11.65;9.23;;;18.30;99.90;;;;;;5034202;28;20116;-71
2021/07/26 01:59:03;;;;;;;10.77;9.23;;;18.30;99.90;;;;;;5032905;28;20037;-72
2021/07/26 02:01:29;;;;;;;11.80;10.43;;;18.30;99.90;;;;;;5033972;28;20025;-71
2021/07/26 02:03:58;;;;;;;9.35;8.55;;;18.30;99.90;;;;;;5033919;28;20553;-71
2021/07/26 02:06:25;;;;;;;10.70;9.70;;;18.20;99.90;;;;;;5033569;28;20108;-71
2021/07/26 02:08:51;;;;;;;11.18;9.45;;;18.30;99.90;;;;;;5033955;28;20084;-71
2021/07/26 02:11:16;;;;;;;10.27;9.27;;;18.20;99.90;;;;;;5033990;28;20029;-70
2021/07/26 02:13:42;;;;;;;11.05;10.02;;;18.20;99.90;;;;;;5033305;28;20025;-70
2021/07/26 02:16:14;;;;;;;10.32;9.30;;;18.20;99.90;;;;;;5033480;28;20030;-72
2021/07/26 02:18:39;;;;;;;10.73;9.70;;;18.20;99.90;;;;;;5034014;28;20095;-71
2021/07/26 02:21:05;;;;;;;12.15;9.88;;;18.20;99.90;;;;;;5033313;28;20017;-71
2021/07/26 02:23:30;;;;;;;13.07;10.32;;;18.20;99.90;;;;;;5033652;28;20028;-70
2021/07/26 02:25:56;;;;;;;12.05;10.18;;;18.20;99.90;;;;;;5033383;28;20473;-71
2021/07/26 02:28:22;;;;;;;11.30;9.18;;;18.20;99.90;;;;;;5032681;28;20497;-71
2021/07/26 02:30:47;;;;;;;13.75;9.07;;;18.20;99.90;;;;;;5033309;28;20044;-71
2021/07/26 02:33:13;;;;;;;13.18;9.45;;;18.20;99.90;;;;;;5033082;28;20477;-72
2021/07/26 02:35:39;;;;;;;10.75;9.45;;;18.20;99.90;;;;;;5032687;28;20079;-72
2021/07/26 02:38:04;;;;;;;11.40;10.10;;;18.20;99.90;;;;;;5036195;28;20036;-71
2021/07/26 02:40:30;;;;;;;9.88;8.98;;;18.20;99.90;;;;;;5053144;28;20376;-71
2021/07/26 02:42:58;;;;;;;10.80;9.80;;;18.20;99.90;;;;;;5052311;28;20499;-72
2021/07/26 02:45:26;;;;;;;11.02;9.98;;;18.20;99.90;;;;;;5053084;28;20524;-70
2021/07/26 02:47:51;;;;;;;10.75;9.63;;;18.20;99.90;;;;;;5053175;28;20423;-70
2021/07/26 02:50:17;;;;;;;10.55;9.48;;;18.20;99.90;;;;;;5052425;28;20025;-71
2021/07/26 02:52:43;;;;;;;11.18;10.10;;;18.10;99.90;;;;;;5053404;28;20082;-71
2021/07/26 02:55:09;;;;;;;11.95;10.93;;;18.10;99.90;;;;;;5052591;28;20052;-71
2021/07/26 02:57:34;;;;;;;11.02;9.93;;;18.10;99.90;;;;;;5052478;28;20120;-70
2021/07/26 03:00:00;;;;;;;11.52;10.40;;;18.00;99.90;;;;;;5052574;28;20032;-70
2021/07/26 03:02:26;;;;;;;11.18;10.18;;;18.00;99.90;;;;;;5052098;28;20028;-70
2021/07/26 03:04:51;;;;;;;11.15;10.18;;;17.90;99.90;;;;;;5052614;28;20025;-71
2021/07/26 03:07:17;;;;;;;12.05;10.80;;;17.90;99.90;;;;;;5052428;28;20028;-71
2021/07/26 03:09:43;;;;;;;14.15;9.32;;;17.90;99.90;;;;;;5051979;28;20029;-71
2021/07/26 03:12:09;;;;;;;10.30;9.35;;;17.90;99.90;;;;;;5052084;28;20025;-71
2021/07/26 03:14:34;;;;;;;10.73;9.82;;;17.80;99.90;;;;;;5052628;28;20028;-71
2021/07/26 03:17:04;;;;;;;12.05;10.82;;;17.80;99.90;;;;;;5051730;28;20020;-71
2021/07/26 03:19:31;;;;;;;12.47;10.87;;;17.80;99.90;;;;;;5052259;28;20028;-71
2021/07/26 03:22:40;;;;;;;10.88;9.82;;;17.70;99.90;;;;;;5052260;28;20384;-72
2021/07/26 03:25:06;;;;;;;12.38;10.98;;;17.70;99.90;;;;;;5044351;28;20029;-72
2021/07/26 03:27:31;;;;;;;12.73;11.50;;;17.80;99.90;;;;;;5052497;28;20031;-71
2021/07/26 03:29:57;;;;;;;11.00;9.90;;;17.70;99.90;;;;;;5052158;28;20021;-72
2021/07/26 03:32:22;;;;;;;13.27;10.85;;;17.70;99.90;;;;;;5051803;28;20013;-72
2021/07/26 03:34:49;;;;;;;12.70;10.85;;;17.80;99.90;;;;;;5051714;28;20017;-71
2021/07/26 03:37:14;;;;;;;12.98;10.52;;;17.70;99.90;;;;;;5051922;28;20041;-72
2021/07/26 03:39:40;;;;;;;12.10;10.90;;;17.70;99.90;;;;;;5051320;28;20044;-70
2021/07/26 03:42:06;;;;;;;11.50;10.38;;;17.80;99.90;;;;;;5051902;28;20028;-71
2021/07/26 03:44:31;;;;;;;12.00;10.38;;;17.70;99.90;;;;;;5051407;28;20032;-70
2021/07/26 03:46:59;;;;;;;13.35;10.90;;;17.70;99.90;;;;;;5051590;28;20044;-71
2021/07/26 03:49:25;;;;;;;12.25;10.20;;;17.70;99.90;;;;;;5051911;28;20029;-71
2021/07/26 03:51:51;;;;;;;11.60;10.50;;;17.70;99.90;;;;;;5051279;28;20456;-71
2021/07/26 03:54:16;;;;;;;12.45;11.15;;;17.70;99.90;;;;;;5052360;28;20082;-71
2021/07/26 03:56:42;;;;;;;14.63;11.75;;;17.70;99.90;;;;;;5051976;28;20107;-71
2021/07/26 03:59:08;;;;;;;12.25;11.05;;;17.70;99.90;;;;;;5050981;28;20041;-71
2021/07/26 04:01:33;;;;;;;12.43;11.05;;;17.70;99.90;;;;;;5051244;28;20017;-70
2021/07/26 04:03:59;;;;;;;11.98;10.85;;;17.70;99.90;;;;;;5051226;28;20025;-71
2021/07/26 04:06:24;;;;;;;12.20;10.98;;;17.70;99.90;;;;;;5050843;28;20022;-70
2021/07/26 04:08:52;;;;;;;12.20;11.13;;;17.70;99.90;;;;;;5051612;28;20036;-71
2021/07/26 04:11:30;;;;;;;14.13;11.52;;;17.80;99.90;;;;;;5052112;28;20025;-71
2021/07/26 04:14:03;;;;;;;13.40;10.98;;;17.80;99.90;;;;;;5050734;28;20461;-71
2021/07/26 04:16:28;;;;;;;11.75;10.52;;;17.80;99.90;;;;;;5051708;28;20025;-71
2021/07/26 04:18:56;;;;;;;15.10;11.60;;;17.90;99.90;;;;;;5051443;28;20037;-71
2021/07/26 04:21:31;;;;;;;10.88;9.82;;;17.90;99.90;;;;;;5051563;28;20027;-71
2021/07/26 04:23:58;;;;;;;13.30;11.02;;;17.90;99.90;;;;;;5051408;28;20029;-70
2021/07/26 04:26:24;;;;;;;13.27;10.73;;;18.90;99.90;;;;;;5052110;28;20021;-71
2021/07/26 04:28:49;;;;;;;12.18;10.80;;;17.90;99.90;;;;;;5051369;28;20386;-72
2021/07/26 04:31:15;;;;;;;17.65;10.65;;;17.90;99.90;;;;;;5051986;28;20022;-71
2021/07/26 04:33:41;;;;;;;16.33;9.98;;;18.00;99.90;;;;;;5051191;28;20481;-71
2021/07/26 04:36:06;;;;;;;11.32;10.23;;;17.90;99.90;;;;;;5050954;28;20063;-71
2021/07/26 04:38:32;;;;;;;12.93;10.45;;;17.80;99.90;;;;;;5051649;28;20098;-71
2021/07/26 04:40:58;;;;;;;11.75;9.38;;;17.90;99.90;;;;;;5050516;28;20145;-71
2021/07/26 04:43:24;;;;;;;12.23;10.52;;;17.90;99.90;;;;;;5051808;28;20021;-71
2021/07/26 04:45:50;;;;;;;13.57;10.93;;;17.90;99.90;;;;;;5051064;28;20036;-71
2021/07/26 04:48:16;;;;;;;17.05;11.13;;;18.00;99.90;;;;;;5051237;28;20031;-71
2021/07/26 04:50:42;;;;;;;14.43;11.02;;;18.00;99.90;;;;;;5051764;28;20033;-71
2021/07/26 04:53:07;;;;;;;12.85;10.32;;;18.10;99.90;;;;;;5051120;28;20028;-71
2021/07/26 04:55:33;;;;;;;15.73;9.95;;;18.10;99.90;;;;;;5045942;28;20025;-71
2021/07/26 04:57:59;;;;;;;14.40;11.10;;;18.20;99.90;;;;;;5042141;28;20037;-70
2021/07/26 05:00:26;;;;;;;11.40;10.20;;;18.30;99.90;;;;;;5048201;28;20025;-71
2021/07/26 05:02:53;;;;;;;14.82;9.95;;;18.30;99.90;;;;;;5039638;28;20022;-71
2021/07/26 05:05:18;;;;;;;10.40;9.40;;;18.40;99.90;;;;;;5051490;28;20036;-71
2021/07/26 05:07:44;;;;;;;11.82;8.98;;;18.40;99.90;;;;;;5026620;28;20022;-71
2021/07/26 05:10:11;;;;;;;11.10;10.10;;;18.50;99.90;;;;;;5012645;28;20113;-71
2021/07/26 05:12:36;;;;;;;13.80;9.43;;;18.60;99.90;;;;;;5014852;28;20188;-71
2021/07/26 05:15:02;;;;;;;17.20;10.38;;;18.60;99.90;;;;;;5020290;28;20064;-71
2021/07/26 05:17:28;;;;;;;12.60;9.98;;;18.70;99.90;;;;;;5015509;28;20025;-71
2021/07/26 05:19:54;;;;;;;10.13;9.15;;;18.80;99.90;;;;;;5016416;28;20041;-70
2021/07/26 05:22:20;;;;;;;11.13;9.98;;;18.80;99.90;;;;;;5017665;28;20018;-71
2021/07/26 05:24:45;;;;;;;10.40;9.02;;;18.90;99.90;;;;;;5051234;28;20021;-71
2021/07/26 05:27:12;;;;;;;10.60;8.63;;;19.00;99.90;;;;;;5038142;28;20021;-71
2021/07/26 05:29:38;;;;;;;10.82;9.75;;;19.00;99.90;;;;;;5054077;28;20048;-71
2021/07/26 05:32:04;;;;;;;11.35;9.00;;;19.10;99.90;;;;;;5045810;28;20408;-71
2021/07/26 05:34:30;;;;;;;9.80;8.80;;;19.20;99.90;;;;;;5035452;28;20029;-70
2021/07/26 05:36:55;;;;;;;10.77;9.77;;;19.20;99.90;;;;;;5035729;28;20171;-72
2021/07/26 05:39:24;;;;;;;9.90;8.38;;;19.30;99.90;;;;;;5021136;28;20044;-72
2021/07/26 05:41:57;;;;;;;9.55;8.63;;;19.30;99.90;;;;;;5044996;28;20073;-71
2021/07/26 05:44:22;;;;;;;10.18;9.25;;;19.30;99.90;;;;;;5033569;28;20492;-72
2021/07/26 05:46:48;;;;;;;9.90;8.18;;;19.30;99.90;;;;;;5051813;28;20028;-72
2021/07/26 05:49:14;;;;;;;11.10;8.48;;;19.30;99.90;;;;;;5051652;28;20017;-71
2021/07/26 05:51:39;;;;;;;10.23;8.63;;;19.20;99.90;;;;;;5036141;28;20036;-71
2021/07/26 05:54:05;;;;;;;9.40;8.50;;;19.20;99.90;;;;;;5043646;28;20022;-71
2021/07/26 05:56:37;;;;;;;10.27;9.43;;;19.20;99.90;;;;;;5035898;28;20107;-72
2021/07/26 05:59:02;;;;;;;14.70;9.15;;;19.30;99.90;;;;;;5042599;28;20393;-72
2021/07/26 06:01:47;;;;;;;9.73;8.73;;;19.30;99.90;;;;;;5032987;28;20040;-72
2021/07/26 06:04:23;;;;;;;10.00;9.00;;;19.30;99.90;;;;;;5033105;28;20032;-72
2021/07/26 06:06:51;;;;;;;14.75;9.95;;;19.40;99.90;;;;;;5032519;28;20025;-71
2021/07/26 06:09:17;;;;;;;10.50;9.50;;;19.50;99.90;;;;;;5040990;28;20079;-71
2021/07/26 06:11:50;;;;;;;14.68;10.90;;;19.60;99.90;;;;;;5032991;28;20469;-72
2021/07/26 06:14:16;;;;;;;10.48;9.45;;;19.70;99.90;;;;;;5033717;28;20067;-71
2021/07/26 06:16:43;;;;;;;10.95;10.00;;;19.90;99.90;;;;;;5032833;28;20021;-71
2021/07/26 06:19:09;;;;;;;15.07;9.63;;;20.10;99.90;;;;;;5038349;28;20039;-72
2021/07/26 06:21:49;;;;;;;11.30;10.00;;;20.40;99.90;;;;;;5039254;28;20057;-71
2021/07/26 06:24:16;;;;;;;12.50;11.27;;;20.70;99.90;;;;;;5020923;28;20033;-71
2021/07/26 06:26:43;;;;;;;10.70;9.60;;;20.90;99.90;;;;;;5032800;28;20021;-72
2021/07/26 06:29:09;;;;;;;10.43;9.48;;;21.00;99.90;;;;;;5023857;28;20025;-72
2021/07/26 06:31:35;;;;;;;10.32;9.32;;;21.20;99.90;;;;;;5018375;28;20026;-71
2021/07/26 06:34:01;;;;;;;10.13;9.27;;;21.30;99.90;;;;;;5021055;28;20401;-71
2021/07/26 06:36:28;;;;;;;10.40;9.50;;;21.30;99.90;;;;;;5014166;28;20093;-72
2021/07/26 06:38:53;;;;;;;12.50;11.43;;;21.50;99.90;;;;;;5028788;28;20033;-71
2021/07/26 06:41:19;;;;;;;12.20;10.93;;;21.50;99.90;;;;;;5032343;28;20024;-71
2021/07/26 06:43:45;;;;;;;10.75;9.70;;;21.50;99.90;;;;;;5033264;28;20051;-72
2021/07/26 06:46:11;;;;;;;11.77;10.48;;;21.30;99.90;;;;;;5045057;28;20040;-72
2021/07/26 06:48:36;;;;;;;11.57;10.57;;;21.20;99.90;;;;;;5036634;28;20037;-73
2021/07/26 06:51:05;;;;;;;11.95;10.73;;;21.10;99.90;;;;;;5016555;28;20537;-71
2021/07/26 06:53:33;;;;;;;14.30;12.15;;;21.00;99.90;;;;;;5017982;28;20083;-72
2021/07/26 06:56:06;;;;;;;12.13;10.98;;;20.90;99.90;;;;;;5019521;28;20010;-72
2021/07/26 06:58:32;;;;;;;13.77;12.30;;;20.80;99.90;;;;;;5019614;28;20378;-72
2021/07/26 07:01:07;;;;;;;12.73;11.30;;;20.70;99.90;;;;;;5020305;28;20045;-74
2021/07/26 07:03:33;;;;;;;12.07;10.98;;;20.80;99.90;;;;;;5014526;28;20442;-74
2021/07/26 07:06:07;;;;;;;11.73;10.63;;;20.60;99.90;;;;;;5022558;28;20101;-74
2021/07/26 07:08:33;;;;;;;12.90;11.57;;;20.80;99.90;;;;;;5019276;28;20140;-75
2021/07/26 07:11:05;;;;;;;13.43;12.23;;;20.80;99.90;;;;;;5015279;28;20617;-72
2021/07/26 07:13:32;;;;;;;20.35;14.25;;;20.90;99.90;;;;;;5018536;28;20017;-73
2021/07/26 07:16:10;;;;;;;14.15;12.85;;;20.90;99.90;;;;;;5021461;28;20034;-73
2021/07/26 07:18:38;;;;;;;14.05;12.85;;;20.90;99.90;;;;;;5017242;28;20056;-73
2021/07/26 07:21:05;;;;;;;16.02;14.38;;;21.00;99.90;;;;;;5018549;28;20024;-74
2021/07/26 07:23:31;;;;;;;15.80;14.32;;;21.10;99.90;;;;;;5014726;28;20030;-74
2021/07/26 07:25:59;;;;;;;20.25;16.65;;;21.10;99.90;;;;;;5014927;28;20500;-75
2021/07/26 07:28:25;;;;;;;15.98;14.38;;;21.00;99.90;;;;;;5017220;28;20041;-75
2021/07/26 07:30:50;;;;;;;18.52;16.35;;;21.00;99.90;;;;;;5020383;28;20040;-77
2021/07/26 07:33:16;;;;;;;18.58;16.85;;;20.80;99.90;;;;;;5014804;28;20064;-74
2021/07/26 07:35:42;;;;;;;20.05;17.67;;;20.80;99.90;;;;;;5013674;28;20066;-76
2021/07/26 07:38:08;;;;;;;22.13;19.83;;;20.80;99.90;;;;;;5016951;28;20054;-75
2021/07/26 07:40:37;;;;;;;23.05;20.30;;;20.70;99.90;;;;;;5018601;28;20022;-76
2021/07/26 07:43:03;;;;;;;23.83;18.98;;;20.60;99.90;;;;;;5024107;28;20045;-75
2021/07/26 07:45:28;;;;;;;25.00;19.52;;;20.60;99.90;;;;;;5027544;28;20390;-75
2021/07/26 07:47:55;;;;;;;23.02;19.73;;;20.70;99.90;;;;;;5030133;28;20022;-75
2021/07/26 07:50:21;;;;;;;25.67;21.98;;;20.70;99.90;;;;;;5031731;28;20026;-75
2021/07/26 07:52:46;;;;;;;25.58;22.80;;;20.80;99.90;;;;;;5024894;28;20323;-75
2021/07/26 07:55:12;;;;;;;24.63;21.95;;;20.80;99.90;;;;;;5029679;28;20453;-77
2021/07/26 07:57:38;;;;;;;24.80;22.08;;;20.90;99.90;;;;;;5026621;28;20026;-75
2021/07/26 08:00:05;;;;;;;25.58;22.85;;;21.00;99.90;;;;;;5029022;28;20168;-75
2021/07/26 08:02:32;;;;;;;26.65;23.95;;;21.00;99.90;;;;;;5029718;28;20048;-75
2021/07/26 08:04:57;;;;;;;26.48;23.67;;;21.00;99.90;;;;;;5029392;28;20103;-74
2021/07/26 08:07:25;;;;;;;31.60;25.25;;;21.00;99.90;;;;;;5027895;28;20068;-76
2021/07/26 08:09:51;;;;;;;29.75;26.15;;;21.00;99.90;;;;;;5028729;28;20034;-76
2021/07/26 08:12:18;;;;;;;34.75;26.60;;;21.00;99.90;;;;;;5028781;28;20029;-74
2021/07/26 08:14:44;;;;;;;30.92;25.38;;;21.00;99.90;;;;;;5030447;28;20028;-74
2021/07/26 08:17:09;;;;;;;32.03;26.70;;;20.90;99.90;;;;;;5029595;28;20013;-75
2021/07/26 08:19:35;;;;;;;31.20;27.58;;;20.80;99.90;;;;;;5029352;28;20120;-76
2021/07/26 08:22:01;;;;;;;30.88;24.50;;;20.90;99.90;;;;;;5029450;28;20029;-74
2021/07/26 08:24:26;;;;;;;41.33;28.23;;;21.00;99.90;;;;;;5029240;28;20099;-75
2021/07/26 08:26:52;;;;;;;33.38;26.63;;;21.10;99.90;;;;;;5029008;28;20043;-76
2021/07/26 08:29:17;;;;;;;29.63;25.33;;;21.10;99.90;;;;;;5029691;28;20072;-76
2021/07/26 08:31:43;;;;;;;31.10;23.98;;;21.20;99.90;;;;;;5029745;28;20528;-75
2021/07/26 08:34:09;;;;;;;31.08;26.00;;;21.20;99.90;;;;;;5029656;28;20032;-75
2021/07/26 08:36:34;;;;;;;30.90;25.25;;;21.10;99.90;;;;;;5028716;28;20437;-77
2021/07/26 08:39:00;;;;;;;29.65;23.95;;;21.10;99.90;;;;;;5021946;28;20132;-77
2021/07/26 08:41:26;;;;;;;25.42;21.98;;;21.10;99.90;;;;;;5031712;28;20048;-76
2021/07/26 08:43:52;;;;;;;23.65;21.35;;;21.20;99.90;;;;;;5031684;28;20029;-75
2021/07/26 08:46:19;;;;;;;21.48;18.83;;;21.40;99.90;;;;;;5029691;28;20032;-76
2021/07/26 08:48:47;;;;;;;23.35;18.55;;;21.60;99.90;;;;;;5030950;28;20053;-75
2021/07/26 08:51:16;;;;;;;20.73;18.73;;;21.90;99.90;;;;;;5046648;28;20025;-75
2021/07/26 08:53:43;;;;;;;20.08;17.70;;;22.20;99.90;;;;;;5025095;28;20041;-75
2021/07/26 08:56:08;;;;;;;19.33;15.90;;;22.40;99.90;;;;;;5031115;28;20373;-74
2021/07/26 08:58:35;;;;;;;16.38;13.85;;;22.50;99.90;;;;;;5033847;28;20033;-75
2021/07/26 09:01:02;;;;;;;14.10;12.80;;;22.60;99.90;;;;;;5039510;28;20028;-74
2021/07/26 09:03:27;;;;;;;13.00;11.50;;;22.70;99.90;;;;;;5054534;28;20128;-75
2021/07/26 09:05:53;;;;;;;13.07;11.88;;;22.80;99.90;;;;;;5053432;28;20143;-75
2021/07/26 09:08:18;;;;;;;12.20;11.15;;;23.00;99.90;;;;;;5052714;28;20488;-75
2021/07/26 09:10:44;;;;;;;11.95;10.48;;;23.10;99.90;;;;;;5054524;28;20468;-75
2021/07/26 09:13:12;;;;;;;12.75;11.55;;;23.20;99.90;;;;;;5055429;28;20528;-75
2021/07/26 09:15:40;;;;;;;11.55;10.65;;;23.40;99.90;;;;;;5055585;28;20036;-75
2021/07/26 09:18:10;;;;;;;12.05;11.05;;;23.40;99.90;;;;;;5055083;28;20063;-75
2021/07/26 09:20:39;;;;;;;10.73;8.70;;;23.50;99.90;;;;;;5055889;28;20497;-74
2021/07/26 09:23:15;;;;;;;9.05;8.23;;;23.60;99.90;;;;;;5040594;28;20078;-75
2021/07/26 09:25:43;;;;;;;8.63;7.82;;;23.70;99.90;;;;;;5055663;28;20153;-75
2021/07/26 09:28:11;;;;;;;8.48;7.78;;;23.80;99.90;;;;;;5041461;28;20078;-75
2021/07/26 09:30:44;;;;;;;7.95;7.18;;;23.90;99.90;;;;;;5054924;28;20055;-75
2021/07/26 09:33:25;;;;;;;8.25;7.45;;;24.00;99.90;;;;;;5055396;28;20027;-75
2021/07/26 09:36:21;;;;;;;7.82;7.13;;;24.20;99.90;;;;;;5055402;28;20120;-75
2021/07/26 09:38:49;;;;;;;6.80;6.30;;;24.30;99.90;;;;;;5055163;28;20132;-77
2021/07/26 09:41:37;;;;;;;7.75;7.13;;;24.40;99.90;;;;;;5055938;28;20029;-76
2021/07/26 09:44:08;;;;;;;7.38;6.68;;;24.50;99.90;;;;;;5055805;28;20434;-73
2021/07/26 09:46:38;;;;;;;6.93;6.43;;;24.60;99.90;;;;;;5055410;28;20025;-76
2021/07/26 09:49:11;;;;;;;6.93;5.30;;;24.60;99.90;;;;;;5054971;28;20025;-73
2021/07/26 09:51:38;;;;;;;10.52;7.20;;;24.80;99.90;;;;;;5030608;28;20026;-71
2021/07/26 09:54:03;;;;;;;6.68;6.07;;;24.90;99.90;;;;;;5053666;28;20527;-74
2021/07/26 09:56:33;;;;;;;6.70;6.20;;;25.00;99.90;;;;;;5028327;28;20030;-75
2021/07/26 09:58:59;;;;;;;6.63;6.13;;;25.00;99.90;;;;;;5031824;28;20088;-73
2021/07/26 10:01:26;;;;;;;6.90;6.40;;;25.00;99.90;;;;;;5035012;28;20033;-74
2021/07/26 10:03:52;;;;;;;6.50;5.55;;;25.00;99.90;;;;;;5033584;28;20030;-74
2021/07/26 10:06:18;;;;;;;5.30;4.90;;;25.10;99.90;;;;;;5031760;28;20473;-75
2021/07/26 10:08:46;;;;;;;6.18;5.13;;;25.00;99.90;;;;;;5033540;28;20076;-75
2021/07/26 10:11:14;;;;;;;4.85;4.45;;;25.00;99.90;;;;;;5045664;28;20033;-75
2021/07/26 10:13:41;;;;;;;5.63;4.88;;;24.90;99.90;;;;;;5013849;28;20117;-75
2021/07/26 10:16:12;;;;;;;10.88;5.68;;;24.90;99.90;;;;;;5020603;28;20021;-74
2021/07/26 10:18:40;;;;;;;5.32;4.78;;;24.80;99.90;;;;;;5026216;28;20087;-74
2021/07/26 10:21:07;;;;;;;4.05;3.75;;;24.60;99.90;;;;;;5043052;28;20070;-73
2021/07/26 10:23:36;;;;;;;5.07;4.68;;;24.50;99.90;;;;;;5032624;28;20352;-74
2021/07/26 10:26:08;;;;;;;6.05;5.03;;;24.40;99.90;;;;;;5043312;28;20029;-73
2021/07/26 10:28:55;;;;;;;6.72;6.13;;;24.40;99.90;;;;;;5040113;28;20029;-74
2021/07/26 10:31:35;;;;;;;8.10;6.20;;;24.30;99.90;;;;;;5025651;28;20104;-73
2021/07/26 10:34:02;;;;;;;8.10;5.53;;;24.30;99.90;;;;;;5018209;28;20056;-73
2021/07/26 10:36:43;;;;;;;5.40;4.88;;;24.40;99.90;;;;;;5032516;28;20113;-73
2021/07/26 10:39:09;;;;;;;6.63;6.05;;;24.40;99.90;;;;;;5019733;28;20057;-73
2021/07/26 10:41:59;;;;;;;12.40;6.07;;;24.50;99.90;;;;;;5031320;28;20022;-74
2021/07/26 10:44:25;;;;;;;5.43;4.93;;;24.60;99.90;;;;;;5020518;28;20024;-73
2021/07/26 10:46:53;;;;;;;5.45;5.00;;;24.70;99.90;;;;;;5035247;28;20105;-74
2021/07/26 10:49:50;;;;;;;5.95;5.45;;;24.70;99.90;;;;;;5016453;28;20476;-74
2021/07/26 10:52:21;;;;;;;7.25;4.50;;;24.70;99.90;;;;;;5024350;28;20512;-73
2021/07/26 10:54:48;;;;;;;5.50;4.80;;;24.60;99.90;;;;;;5031315;28;20033;-74
2021/07/26 10:57:14;;;;;;;5.88;5.38;;;24.70;99.90;;;;;;5035716;28;20059;-75
2021/07/26 11:00:18;;;;;;;9.73;5.13;;;24.80;99.90;;;;;;5021497;28;20169;-75
2021/07/26 11:02:48;;;;;;;6.50;5.80;;;24.90;99.90;;;;;;5021582;28;20029;-75
2021/07/26 11:05:31;;;;;;;5.25;4.85;;;25.10;99.90;;;;;;5015153;28;20105;-75
2021/07/26 11:08:15;;;;;;;6.45;5.38;;;25.30;99.90;;;;;;5014095;28;20022;-75
2021/07/26 11:10:59;;;;;;;6.85;6.25;;;25.40;99.90;;;;;;5017305;28;20057;-74
2021/07/26 11:13:47;;;;;;;6.35;5.80;;;25.40;99.90;;;;;;5014854;28;20532;-74
2021/07/26 11:16:12;;;;;;;6.15;5.28;;;25.30;99.90;;;;;;5014189;28;20062;-74
2021/07/26 11:18:40;;;;;;;6.20;5.60;;;25.30;99.90;;;;;;5016375;28;20072;-74
2021/07/26 11:21:09;;;;;;;5.45;4.95;;;25.30;99.90;;;;;;5014816;28;20585;-74
2021/07/26 11:23:41;;;;;;;12.85;5.13;;;25.20;99.90;;;;;;5020594;28;20028;-76
2021/07/26 11:26:20;;;;;;;5.63;5.13;;;25.30;99.90;;;;;;5030010;28;20029;-76
2021/07/26 11:28:47;;;;;;;6.85;6.10;;;25.20;99.90;;;;;;5029271;28;20029;-75
2021/07/26 11:31:24;;;;;;;10.75;6.15;;;25.40;99.90;;;;;;5031015;28;20026;-75
2021/07/26 11:33:51;;;;;;;7.07;6.22;;;25.40;99.90;;;;;;5023370;28;20458;-74
2021/07/26 11:36:17;;;;;;;6.15;5.57;;;25.50;99.90;;;;;;5019181;28;20033;-75
2021/07/26 11:39:18;;;;;;;4.90;4.50;;;25.60;99.90;;;;;;5029756;28;20070;-75
2021/07/26 11:41:52;;;;;;;6.82;4.60;;;25.70;99.90;;;;;;5029004;28;20054;-73
2021/07/26 11:44:26;;;;;;;5.50;4.47;;;25.70;99.90;;;;;;5018490;28;20059;-75
2021/07/26 11:46:52;;;;;;;6.35;4.70;;;25.70;99.90;;;;;;5024826;28;20522;-77
2021/07/26 11:49:18;;;;;;;4.72;4.20;;;25.70;99.90;;;;;;5017504;28;20025;-76
2021/07/26 11:51:43;;;;;;;4.32;3.92;;;25.80;99.90;;;;;;5023592;28;20076;-74
2021/07/26 11:54:09;;;;;;;7.85;4.97;;;25.70;99.90;;;;;;5028560;28;20025;-76
2021/07/26 11:56:36;;;;;;;5.25;4.78;;;25.70;99.90;;;;;;5017242;28;20112;-75
2021/07/26 11:59:15;;;;;;;11.35;5.50;;;25.70;99.90;;;;;;5035779;28;20571;-77
2021/07/26 12:01:44;;;;;;;5.77;4.87;;;25.70;99.90;;;;;;5032246;28;20027;-77
2021/07/26 12:04:11;;;;;;;8.68;6.10;;;25.70;99.90;;;;;;5025176;28;20030;-76
2021/07/26 12:06:53;;;;;;;7.68;5.05;;;25.70;99.90;;;;;;5028930;28;20041;-77
2021/07/26 12:09:19;;;;;;;5.68;4.50;;;25.80;99.90;;;;;;5022611;28;20028;-75
2021/07/26 12:11:45;;;;;;;4.35;3.70;;;26.00;99.90;;;;;;5023385;28;20030;-77
2021/07/26 12:14:30;;;;;;;5.40;4.00;;;26.30;99.90;;;;;;5029740;28;20028;-78
2021/07/26 12:17:01;;;;;;;4.03;3.67;;;26.60;99.90;;;;;;5028598;28;20048;-77
2021/07/26 12:19:27;;;;;;;4.28;3.47;;;26.80;99.90;;;;;;5027317;28;20030;-76
2021/07/26 12:21:53;;;;;;;10.05;3.10;;;26.90;99.90;;;;;;5020843;28;20064;-78
2021/07/26 12:24:48;;;;;;;4.65;3.00;;;26.90;99.90;;;;;;5018063;28;20029;-76
2021/07/26 12:27:29;;;;;;;5.45;3.90;;;26.80;99.90;;;;;;5027557;28;20028;-72
2021/07/26 12:30:04;;;;;;;4.43;4.13;;;26.90;99.90;;;;;;5035595;28;20381;-73
2021/07/26 12:32:45;;;;;;;5.05;4.55;;;27.10;99.90;;;;;;5034968;28;20071;-72
2021/07/26 12:35:28;;;;;;;5.60;4.93;;;27.30;99.90;;;;;;5035811;28;20029;-72
2021/07/26 12:38:10;;;;;;;9.35;8.48;;;27.20;99.90;;;;;;5035353;28;20045;-72
2021/07/26 12:40:39;;;;;;;9.40;8.50;;;27.00;99.90;;;;;;5025251;28;20091;-72
2021/07/26 12:43:13;;;;;;;8.50;7.80;;;26.50;99.80;;;;;;5036659;28;20327;-71